sensor_id;sensor_type;location;lat;lon;timestamp;pressure;altitude;pressure_sealevel;temperature;humidity
47166;BME280;32930;51.112;13.762;2022-12-24T00:00:21;97900.47;;;10.29;100.00
47166;BME280;32930;51.112;13.762;2022-12-24T00:02:46;97894.38;;;10.34;100.00
47166;BME280;32930;51.112;13.762;2022-12-24T00:05:12;97896.81;;;10.39;100.00
47166;BME280;32930;51.112;13.762;2022-12-24T00:07:37;97905.34;;;10.39;100.00
47166;BME280;32930;51.112;13.762;2022-12-24T00:10:04;97911.31;;;10.41;100.00
47166;BME280;32930;51.112;13.762;2022-12-24T00:12:30;97913.88;;;10.40;100.00
47166;BME280;32930;51.112;13.762;2022-12-24T00:14:56;97920.41;;;10.56;100.00
47166;BME280;32930;51.112;13.762;2022-12-24T00:17:21;97935.19;;;10.43;100.00
47166;BME280;32930;51.112;13.762;2022-12-24T00:19:47;97930.88;;;10.46;100.00
47166;BME280;32930;51.112;13.762;2022-12-24T00:22:12;97936.22;;;10.35;100.00
47166;BME280;32930;51.112;13.762;2022-12-24T00:24:38;97932.81;;;10.34;100.00
47166;BME280;32930;51.112;13.762;2022-12-24T00:27:03;97931.94;;;10.35;100.00
47166;BME280;32930;51.112;13.762;2022-12-24T00:29:30;97929.44;;;10.31;100.00
47166;BME280;32930;51.112;13.762;2022-12-24T00:31:56;97931.22;;;10.27;100.00
47166;BME280;32930;51.112;13.762;2022-12-24T00:34:23;97950.53;;;10.47;100.00
47166;BME280;32930;51.112;13.762;2022-12-24T00:36:48;97933.50;;;10.42;100.00
47166;BME280;32930;51.112;13.762;2022-12-24T00:39:14;97925.06;;;10.37;100.00
47166;BME280;32930;51.112;13.762;2022-12-24T00:41:39;97933.59;;;10.36;100.00
47166;BME280;32930;51.112;13.762;2022-12-24T00:44:07;97942.19;;;10.35;100.00
47166;BME280;32930;51.112;13.762;2022-12-24T00:46:38;97937.06;;;10.35;100.00
47166;BME280;32930;51.112;13.762;2022-12-24T00:49:06;97944.88;;;10.29;100.00
47166;BME280;32930;51.112;13.762;2022-12-24T00:51:33;97949.16;;;10.29;100.00
47166;BME280;32930;51.112;13.762;2022-12-24T00:54:00;97960.00;;;10.41;100.00
47166;BME280;32930;51.112;13.762;2022-12-24T00:56:26;97955.88;;;10.34;100.00
47166;BME280;32930;51.112;13.762;2022-12-24T00:58:52;97961.88;;;10.33;100.00
47166;BME280;32930;51.112;13.762;2022-12-24T01:01:17;97970.63;;;10.21;100.00
47166;BME280;32930;51.112;13.762;2022-12-24T01:03:43;97979.16;;;10.22;100.00
47166;BME280;32930;51.112;13.762;2022-12-24T01:06:12;97975.81;;;10.18;100.00
47166;BME280;32930;51.112;13.762;2022-12-24T01:08:39;97978.31;;;10.21;100.00
47166;BME280;32930;51.112;13.762;2022-12-24T01:11:06;97980.63;;;10.35;100.00
47166;BME280;32930;51.112;13.762;2022-12-24T01:13:32;97981.72;;;10.22;100.00
47166;BME280;32930;51.112;13.762;2022-12-24T01:15:58;97995.25;;;10.30;100.00
47166;BME280;32930;51.112;13.762;2022-12-24T01:18:24;98012.22;;;10.37;100.00
47166;BME280;32930;51.112;13.762;2022-12-24T01:21:01;98011.28;;;10.41;100.00
47166;BME280;32930;51.112;13.762;2022-12-24T01:23:28;98028.22;;;10.49;100.00
47166;BME280;32930;51.112;13.762;2022-12-24T01:25:59;98025.81;;;10.41;100.00
47166;BME280;32930;51.112;13.762;2022-12-24T01:28:24;98027.66;;;10.33;100.00
47166;BME280;32930;51.112;13.762;2022-12-24T01:30:50;98033.56;;;10.36;100.00
47166;BME280;32930;51.112;13.762;2022-12-24T01:33:15;98017.47;;;10.31;100.00
47166;BME280;32930;51.112;13.762;2022-12-24T01:35:42;98029.16;;;10.44;100.00
47166;BME280;32930;51.112;13.762;2022-12-24T01:38:09;98030.16;;;10.36;100.00
47166;BME280;32930;51.112;13.762;2022-12-24T01:40:37;98033.53;;;10.39;100.00
47166;BME280;32930;51.112;13.762;2022-12-24T01:43:24;98040.25;;;10.45;100.00
47166;BME280;32930;51.112;13.762;2022-12-24T01:48:35;98051.50;;;10.36;100.00
47166;BME280;32930;51.112;13.762;2022-12-24T01:53:42;98068.50;;;10.43;100.00
47166;BME280;32930;51.112;13.762;2022-12-24T01:56:11;98056.69;;;10.33;100.00
47166;BME280;32930;51.112;13.762;2022-12-24T01:58:42;98065.16;;;10.38;100.00
47166;BME280;32930;51.112;13.762;2022-12-24T02:01:10;98058.41;;;10.34;100.00
47166;BME280;32930;51.112;13.762;2022-12-24T02:03:36;98059.22;;;10.36;100.00
47166;BME280;32930;51.112;13.762;2022-12-24T02:06:02;98070.25;;;10.40;100.00
47166;BME280;32930;51.112;13.762;2022-12-24T02:08:28;98077.91;;;10.41;100.00
47166;BME280;32930;51.112;13.762;2022-12-24T02:11:16;98072.91;;;10.34;100.00
47166;BME280;32930;51.112;13.762;2022-12-24T02:13:45;98083.06;;;10.41;100.00
47166;BME280;32930;51.112;13.762;2022-12-24T02:16:28;98070.34;;;10.35;100.00
47166;BME280;32930;51.112;13.762;2022-12-24T02:18:59;98070.50;;;10.26;100.00
47166;BME280;32930;51.112;13.762;2022-12-24T02:27:02;98086.75;;;10.24;100.00
47166;BME280;32930;51.112;13.762;2022-12-24T02:29:57;98096.88;;;10.33;100.00
47166;BME280;32930;51.112;13.762;2022-12-24T02:32:40;98100.13;;;10.42;100.00
47166;BME280;32930;51.112;13.762;2022-12-24T02:35:39;98110.63;;;10.27;100.00
47166;BME280;32930;51.112;13.762;2022-12-24T02:38:13;98116.53;;;10.32;100.00
47166;BME280;32930;51.112;13.762;2022-12-24T02:40:49;98121.50;;;10.40;100.00
47166;BME280;32930;51.112;13.762;2022-12-24T02:43:21;98123.19;;;10.42;100.00
47166;BME280;32930;51.112;13.762;2022-12-24T02:45:53;98134.38;;;10.37;100.00
47166;BME280;32930;51.112;13.762;2022-12-24T02:48:22;98141.38;;;10.29;100.00
47166;BME280;32930;51.112;13.762;2022-12-24T08:52:35;98745.34;;;10.40;93.85
47166;BME280;32930;51.112;13.762;2022-12-24T08:55:01;98745.28;;;10.48;93.53
47166;BME280;32930;51.112;13.762;2022-12-24T08:57:37;98755.50;;;10.50;91.50
47166;BME280;32930;51.112;13.762;2022-12-24T09:00:06;98764.88;;;10.57;90.85
47166;BME280;32930;51.112;13.762;2022-12-24T09:02:32;98767.53;;;10.44;93.03
47166;BME280;32930;51.112;13.762;2022-12-24T09:04:58;98768.31;;;10.51;91.59
47166;BME280;32930;51.112;13.762;2022-12-24T09:07:23;98776.06;;;10.45;90.90
47166;BME280;32930;51.112;13.762;2022-12-24T09:09:49;98775.19;;;10.48;89.70
47166;BME280;32930;51.112;13.762;2022-12-24T09:12:15;98780.31;;;10.48;92.39
47166;BME280;32930;51.112;13.762;2022-12-24T09:14:40;98785.38;;;10.58;89.90
47166;BME280;32930;51.112;13.762;2022-12-24T09:17:06;98785.38;;;10.57;90.93
47166;BME280;32930;51.112;13.762;2022-12-24T09:19:31;98787.09;;;10.58;88.50
47166;BME280;32930;51.112;13.762;2022-12-24T09:21:57;98797.25;;;10.68;86.80
47166;BME280;32930;51.112;13.762;2022-12-24T09:24:22;98801.56;;;10.66;88.96
47166;BME280;32930;51.112;13.762;2022-12-24T09:26:48;98798.16;;;10.63;88.64
47166;BME280;32930;51.112;13.762;2022-12-24T09:29:14;98805.97;;;10.48;87.31
47166;BME280;32930;51.112;13.762;2022-12-24T09:31:40;98807.56;;;10.61;87.81
47166;BME280;32930;51.112;13.762;2022-12-24T09:34:06;98809.28;;;10.63;88.04
47166;BME280;32930;51.112;13.762;2022-12-24T09:36:38;98813.56;;;10.58;88.31
47166;BME280;32930;51.112;13.762;2022-12-24T09:39:03;98827.16;;;10.71;86.23
47166;BME280;32930;51.112;13.762;2022-12-24T09:41:58;98830.59;;;10.70;86.40
47166;BME280;32930;51.112;13.762;2022-12-24T09:47:08;98840.75;;;10.84;83.83
47166;BME280;32930;51.112;13.762;2022-12-24T09:49:46;98837.44;;;10.70;86.40
47166;BME280;32930;51.112;13.762;2022-12-24T09:52:26;98834.88;;;10.73;86.60
47166;BME280;32930;51.112;13.762;2022-12-24T09:55:49;98839.06;;;10.83;84.64
47166;BME280;32930;51.112;13.762;2022-12-24T09:57:58;98852.81;;;10.76;83.67
47166;BME280;32930;51.112;13.762;2022-12-24T10:00:30;98854.44;;;10.84;83.96
47166;BME280;32930;51.112;13.762;2022-12-24T10:02:57;98867.19;;;10.94;83.51
47166;BME280;32930;51.112;13.762;2022-12-24T10:05:42;98856.94;;;10.90;85.50
47166;BME280;32930;51.112;13.762;2022-12-24T10:11:25;98864.50;;;11.09;84.63
47166;BME280;32930;51.112;13.762;2022-12-24T10:14:33;98871.41;;;11.02;83.96
47166;BME280;32930;51.112;13.762;2022-12-24T10:19:51;98880.75;;;11.11;84.16
47166;BME280;32930;51.112;13.762;2022-12-24T10:28:27;98875.78;;;10.94;84.74
47166;BME280;32930;51.112;13.762;2022-12-24T10:31:00;98885.13;;;11.01;84.37
47166;BME280;32930;51.112;13.762;2022-12-24T10:33:42;98888.50;;;11.08;83.32
47166;BME280;32930;51.112;13.762;2022-12-24T10:36:15;98889.28;;;11.16;82.21
47166;BME280;32930;51.112;13.762;2022-12-24T10:38:43;98891.06;;;11.05;83.96
47166;BME280;32930;51.112;13.762;2022-12-24T10:41:10;98896.16;;;11.14;83.76
47166;BME280;32930;51.112;13.762;2022-12-24T10:43:38;98897.78;;;11.23;83.59
47166;BME280;32930;51.112;13.762;2022-12-24T10:46:16;98899.50;;;11.21;83.15
47166;BME280;32930;51.112;13.762;2022-12-24T10:49:01;98896.00;;;11.32;82.51
47166;BME280;32930;51.112;13.762;2022-12-24T10:54:04;98906.28;;;11.32;82.75
47166;BME280;32930;51.112;13.762;2022-12-24T10:56:31;98907.91;;;11.40;82.63
47166;BME280;32930;51.112;13.762;2022-12-24T10:58:57;98900.94;;;11.55;81.50
47166;BME280;32930;51.112;13.762;2022-12-24T11:01:45;98911.47;;;11.22;81.83
47166;BME280;32930;51.112;13.762;2022-12-24T11:04:31;98919.09;;;11.35;79.56
47166;BME280;32930;51.112;13.762;2022-12-24T11:07:03;98920.81;;;11.35;82.44
47166;BME280;32930;51.112;13.762;2022-12-24T11:09:42;98917.44;;;11.22;82.65
47166;BME280;32930;51.112;13.762;2022-12-24T11:13:14;98927.69;;;11.25;83.07
47166;BME280;32930;51.112;13.762;2022-12-24T11:15:32;98932.84;;;11.25;83.79
47166;BME280;32930;51.112;13.762;2022-12-24T11:17:59;98914.94;;;11.18;84.67
47166;BME280;32930;51.112;13.762;2022-12-24T11:20:31;98935.38;;;11.28;84.34
47166;BME280;32930;51.112;13.762;2022-12-24T11:22:58;98933.75;;;11.23;83.79
47166;BME280;32930;51.112;13.762;2022-12-24T11:25:27;98942.28;;;11.23;82.03
47166;BME280;32930;51.112;13.762;2022-12-24T11:27:54;98949.13;;;11.23;81.97
47166;BME280;32930;51.112;13.762;2022-12-24T11:32:49;98948.31;;;11.19;84.91
47166;BME280;32930;51.112;13.762;2022-12-24T11:37:42;98958.53;;;11.22;85.47
47166;BME280;32930;51.112;13.762;2022-12-24T11:40:21;98956.88;;;11.15;86.80
47166;BME280;32930;51.112;13.762;2022-12-24T11:42:49;98960.16;;;11.34;85.76
47166;BME280;32930;51.112;13.762;2022-12-24T11:45:27;98964.47;;;11.30;87.16
47166;BME280;32930;51.112;13.762;2022-12-24T11:47:54;98961.09;;;11.24;88.08
47166;BME280;32930;51.112;13.762;2022-12-24T11:50:31;98965.25;;;11.45;85.54
47166;BME280;32930;51.112;13.762;2022-12-24T11:53:16;98968.75;;;11.28;85.92
47166;BME280;32930;51.112;13.762;2022-12-24T11:55:48;98972.13;;;11.40;85.84
47166;BME280;32930;51.112;13.762;2022-12-24T11:59:04;98977.34;;;11.27;89.78
47166;BME280;32930;51.112;13.762;2022-12-24T12:01:32;98977.31;;;11.35;87.91
47166;BME280;32930;51.112;13.762;2022-12-24T12:04:03;98980.72;;;11.35;88.49
47166;BME280;32930;51.112;13.762;2022-12-24T12:06:51;98983.22;;;11.43;89.39
47166;BME280;32930;51.112;13.762;2022-12-24T12:09:21;98979.00;;;11.33;89.15
47166;BME280;32930;51.112;13.762;2022-12-24T12:11:58;98979.78;;;11.41;90.06
47166;BME280;32930;51.112;13.762;2022-12-24T12:14:48;98979.81;;;11.40;90.23
47166;BME280;32930;51.112;13.762;2022-12-24T12:25:34;98983.28;;;11.34;90.42
47166;BME280;32930;51.112;13.762;2022-12-24T12:28:05;98985.88;;;11.32;90.04
47166;BME280;32930;51.112;13.762;2022-12-24T12:30:34;98988.28;;;11.52;87.44
47166;BME280;32930;51.112;13.762;2022-12-24T12:33:17;98994.34;;;11.44;86.82
47166;BME280;32930;51.112;13.762;2022-12-24T12:35:47;98986.72;;;11.28;89.27
47166;BME280;32930;51.112;13.762;2022-12-24T12:38:23;98984.91;;;11.46;87.25
47166;BME280;32930;51.112;13.762;2022-12-24T12:41:29;98981.66;;;11.21;89.78
47166;BME280;32930;51.112;13.762;2022-12-24T12:44:15;98979.91;;;11.27;90.38
47166;BME280;32930;51.112;13.762;2022-12-24T12:52:39;98994.53;;;11.16;92.32
47166;BME280;32930;51.112;13.762;2022-12-24T12:57:36;98996.25;;;11.14;91.99
47166;BME280;32930;51.112;13.762;2022-12-24T13:00:06;98994.47;;;11.24;91.37
47166;BME280;32930;51.112;13.762;2022-12-24T13:02:47;98992.84;;;11.10;93.47
47166;BME280;32930;51.112;13.762;2022-12-24T13:05:41;98998.75;;;11.22;92.78
47166;BME280;32930;51.112;13.762;2022-12-24T13:22:52;98985.94;;;11.23;97.04
47166;BME280;32930;51.112;13.762;2022-12-24T13:25:36;98988.44;;;11.32;96.78
47166;BME280;32930;51.112;13.762;2022-12-24T13:28:16;98990.00;;;11.50;93.31
47166;BME280;32930;51.112;13.762;2022-12-24T13:33:51;99002.91;;;11.41;94.43
47166;BME280;32930;51.112;13.762;2022-12-24T13:36:18;99001.97;;;11.53;91.54
47166;BME280;32930;51.112;13.762;2022-12-24T13:38:53;98996.13;;;11.35;93.74
47166;BME280;32930;51.112;13.762;2022-12-24T13:49:38;99015.81;;;11.35;92.12
47166;BME280;32930;51.112;13.762;2022-12-24T13:54:44;99010.63;;;11.40;92.53
47166;BME280;32930;51.112;13.762;2022-12-24T13:57:31;99015.81;;;11.35;93.42
47166;BME280;32930;51.112;13.762;2022-12-24T14:00:03;99018.41;;;11.30;93.74
47166;BME280;32930;51.112;13.762;2022-12-24T14:02:36;99017.47;;;11.37;93.44
47166;BME280;32930;51.112;13.762;2022-12-24T14:05:07;99022.63;;;11.39;92.21
47166;BME280;32930;51.112;13.762;2022-12-24T14:07:48;99030.31;;;11.42;89.84
47166;BME280;32930;51.112;13.762;2022-12-24T14:10:55;99036.22;;;11.50;88.49
47166;BME280;32930;51.112;13.762;2022-12-24T14:16:20;99037.28;;;11.20;92.45
47166;BME280;32930;51.112;13.762;2022-12-24T14:19:14;99039.75;;;11.39;90.98
47166;BME280;32930;51.112;13.762;2022-12-24T14:22:12;99050.00;;;11.40;89.21
47166;BME280;32930;51.112;13.762;2022-12-24T14:24:52;99051.78;;;11.32;90.91
47166;BME280;32930;51.112;13.762;2022-12-24T14:27:24;99059.47;;;11.30;91.16
47166;BME280;32930;51.112;13.762;2022-12-24T14:30:18;99055.19;;;11.31;90.80
47166;BME280;32930;51.112;13.762;2022-12-24T14:32:46;99062.94;;;11.26;92.43
47166;BME280;32930;51.112;13.762;2022-12-24T14:35:25;99067.25;;;11.23;92.94
47166;BME280;32930;51.112;13.762;2022-12-24T14:38:05;99071.50;;;11.27;91.89
47166;BME280;32930;51.112;13.762;2022-12-24T14:40:37;99078.25;;;11.40;89.26
47166;BME280;32930;51.112;13.762;2022-12-24T14:45:53;99080.09;;;11.18;90.84
47166;BME280;32930;51.112;13.762;2022-12-24T14:53:45;99087.81;;;11.12;91.62
47166;BME280;32930;51.112;13.762;2022-12-24T14:56:13;99103.19;;;11.20;89.39
47166;BME280;32930;51.112;13.762;2022-12-24T14:58:39;99097.25;;;11.10;91.83
47166;BME280;32930;51.112;13.762;2022-12-24T15:01:28;99105.75;;;11.20;90.99
47166;BME280;32930;51.112;13.762;2022-12-24T15:06:45;99109.19;;;11.17;92.86
47166;BME280;32930;51.112;13.762;2022-12-24T15:09:23;99107.53;;;11.05;93.85
47166;BME280;32930;51.112;13.762;2022-12-24T15:11:53;99103.28;;;10.98;95.85
47166;BME280;32930;51.112;13.762;2022-12-24T15:14:23;99107.53;;;11.05;96.96
47166;BME280;32930;51.112;13.762;2022-12-24T15:17:02;99104.94;;;11.08;97.78
47166;BME280;32930;51.112;13.762;2022-12-24T15:19:33;99111.88;;;10.85;99.22
47166;BME280;32930;51.112;13.762;2022-12-24T15:22:02;99105.84;;;10.94;100.00
47166;BME280;32930;51.112;13.762;2022-12-24T15:24:31;99102.47;;;10.82;100.00
47166;BME280;32930;51.112;13.762;2022-12-24T15:26:58;99107.59;;;10.88;100.00
47166;BME280;32930;51.112;13.762;2022-12-24T15:29:27;99115.28;;;10.88;100.00
47166;BME280;32930;51.112;13.762;2022-12-24T15:31:56;99115.31;;;10.78;100.00
47166;BME280;32930;51.112;13.762;2022-12-24T15:37:11;99105.94;;;10.72;100.00
47166;BME280;32930;51.112;13.762;2022-12-24T15:39:43;99102.53;;;10.64;100.00
47166;BME280;32930;51.112;13.762;2022-12-24T15:42:16;99105.94;;;10.69;100.00
47166;BME280;32930;51.112;13.762;2022-12-24T15:47:27;99111.91;;;10.65;100.00
47166;BME280;32930;51.112;13.762;2022-12-24T15:49:55;99111.09;;;10.54;100.00
47166;BME280;32930;51.112;13.762;2022-12-24T15:52:23;99111.94;;;10.66;100.00
47166;BME280;32930;51.112;13.762;2022-12-24T15:54:50;99123.03;;;10.65;100.00
47166;BME280;32930;51.112;13.762;2022-12-24T15:57:22;99147.81;;;10.65;100.00
47166;BME280;32930;51.112;13.762;2022-12-24T15:59:54;99154.69;;;10.60;100.00
47166;BME280;32930;51.112;13.762;2022-12-24T16:02:34;99163.22;;;10.50;100.00
47166;BME280;32930;51.112;13.762;2022-12-24T16:05:26;99163.25;;;10.54;100.00
47166;BME280;32930;51.112;13.762;2022-12-24T16:10:46;99176.91;;;10.49;100.00
47166;BME280;32930;51.112;13.762;2022-12-24T16:13:17;99173.50;;;10.33;100.00
47166;BME280;32930;51.112;13.762;2022-12-24T16:15:48;99164.94;;;10.34;100.00
47166;BME280;32930;51.112;13.762;2022-12-24T16:18:23;99180.31;;;10.34;100.00
47166;BME280;32930;51.112;13.762;2022-12-24T16:20:51;99174.34;;;10.27;100.00
47166;BME280;32930;51.112;13.762;2022-12-24T16:23:20;99177.75;;;10.18;100.00
47166;BME280;32930;51.112;13.762;2022-12-24T16:25:46;99180.31;;;10.12;100.00
47166;BME280;32930;51.112;13.762;2022-12-24T16:28:12;99177.72;;;10.05;100.00
47166;BME280;32930;51.112;13.762;2022-12-24T16:30:38;99180.28;;;10.08;100.00
47166;BME280;32930;51.112;13.762;2022-12-24T16:33:04;99176.84;;;9.95;100.00
47166;BME280;32930;51.112;13.762;2022-12-24T16:35:31;99184.53;;;9.98;100.00
47166;BME280;32930;51.112;13.762;2022-12-24T16:38:03;99189.66;;;9.90;100.00
47166;BME280;32930;51.112;13.762;2022-12-24T16:40:29;99186.22;;;9.71;100.00
47166;BME280;32930;51.112;13.762;2022-12-24T16:42:57;99185.34;;;9.71;100.00
47166;BME280;32930;51.112;13.762;2022-12-24T16:45:43;99201.50;;;9.58;100.00
47166;BME280;32930;51.112;13.762;2022-12-24T16:48:18;99196.41;;;9.64;100.00
47166;BME280;32930;51.112;13.762;2022-12-24T16:50:44;99198.94;;;9.58;100.00
47166;BME280;32930;51.112;13.762;2022-12-24T16:53:13;99205.81;;;9.63;100.00
47166;BME280;32930;51.112;13.762;2022-12-24T16:55:39;99206.69;;;9.65;100.00
47166;BME280;32930;51.112;13.762;2022-12-24T16:58:04;99208.41;;;9.77;100.00
47166;BME280;32930;51.112;13.762;2022-12-24T17:00:30;99215.25;;;9.75;100.00
47166;BME280;32930;51.112;13.762;2022-12-24T17:02:55;99216.97;;;9.85;100.00
47166;BME280;32930;51.112;13.762;2022-12-24T17:05:21;99224.66;;;9.78;100.00
47166;BME280;32930;51.112;13.762;2022-12-24T17:07:49;99225.50;;;9.75;100.00
47166;BME280;32930;51.112;13.762;2022-12-24T17:10:15;99221.22;;;9.77;100.00
47166;BME280;32930;51.112;13.762;2022-12-24T17:12:42;99219.50;;;9.71;100.00
47166;BME280;32930;51.112;13.762;2022-12-24T17:15:08;99222.06;;;9.76;100.00
47166;BME280;32930;51.112;13.762;2022-12-24T17:17:34;99226.31;;;9.69;100.00
47166;BME280;32930;51.112;13.762;2022-12-24T17:20:00;99237.44;;;9.76;100.00
47166;BME280;32930;51.112;13.762;2022-12-24T17:22:26;99240.84;;;9.75;100.00
47166;BME280;32930;51.112;13.762;2022-12-24T17:24:53;99235.75;;;9.83;100.00
47166;BME280;32930;51.112;13.762;2022-12-24T17:27:19;99228.91;;;9.86;100.00
47166;BME280;32930;51.112;13.762;2022-12-24T17:29:44;99236.56;;;9.74;100.00
47166;BME280;32930;51.112;13.762;2022-12-24T17:32:10;99224.59;;;9.59;100.00
47166;BME280;32930;51.112;13.762;2022-12-24T17:34:35;99223.75;;;9.74;100.00
47166;BME280;32930;51.112;13.762;2022-12-24T17:37:01;99229.63;;;9.41;100.00
47166;BME280;32930;51.112;13.762;2022-12-24T17:39:27;99233.00;;;9.31;100.00
47166;BME280;32930;51.112;13.762;2022-12-24T17:41:52;99238.00;;;9.14;100.00
47166;BME280;32930;51.112;13.762;2022-12-24T17:44:18;99239.72;;;9.15;100.00
47166;BME280;32930;51.112;13.762;2022-12-24T17:46:43;99251.63;;;9.08;100.00
47166;BME280;32930;51.112;13.762;2022-12-24T17:49:09;99241.34;;;8.99;100.00
47166;BME280;32930;51.112;13.762;2022-12-24T17:51:35;99246.53;;;9.17;100.00
47166;BME280;32930;51.112;13.762;2022-12-24T17:54:01;99243.03;;;9.00;100.00
47166;BME280;32930;51.112;13.762;2022-12-24T17:56:27;99259.19;;;8.93;100.00
47166;BME280;32930;51.112;13.762;2022-12-24T17:58:53;99240.47;;;8.95;100.00
47166;BME280;32930;51.112;13.762;2022-12-24T18:01:22;99253.09;;;8.74;100.00
47166;BME280;32930;51.112;13.762;2022-12-24T18:03:50;99269.28;;;8.76;100.00
47166;BME280;32930;51.112;13.762;2022-12-24T18:06:18;99271.75;;;8.62;100.00
47166;BME280;32930;51.112;13.762;2022-12-24T18:08:45;99275.94;;;8.57;100.00
47166;BME280;32930;51.112;13.762;2022-12-24T18:11:23;99283.69;;;8.65;100.00
47166;BME280;32930;51.112;13.762;2022-12-24T18:13:52;99283.72;;;8.69;100.00
47166;BME280;32930;51.112;13.762;2022-12-24T18:18:52;99290.34;;;8.46;100.00
47166;BME280;32930;51.112;13.762;2022-12-24T18:21:22;99287.72;;;8.41;100.00
47166;BME280;32930;51.112;13.762;2022-12-24T18:23:50;99292.81;;;8.38;100.00
47166;BME280;32930;51.112;13.762;2022-12-24T18:26:18;99296.16;;;8.34;100.00
47166;BME280;32930;51.112;13.762;2022-12-24T18:28:44;99297.88;;;8.36;100.00
47166;BME280;32930;51.112;13.762;2022-12-24T18:31:13;99304.56;;;8.25;100.00
47166;BME280;32930;51.112;13.762;2022-12-24T18:33:40;99308.06;;;8.30;100.00
47166;BME280;32930;51.112;13.762;2022-12-24T18:36:06;99307.13;;;8.24;100.00
47166;BME280;32930;51.112;13.762;2022-12-24T18:38:32;99298.72;;;8.32;100.00
47166;BME280;32930;51.112;13.762;2022-12-24T18:41:06;99302.06;;;8.27;100.00
47166;BME280;32930;51.112;13.762;2022-12-24T18:43:32;99303.72;;;8.25;100.00
47166;BME280;32930;51.112;13.762;2022-12-24T18:45:58;99300.44;;;8.36;100.00
47166;BME280;32930;51.112;13.762;2022-12-24T18:48:24;99305.81;;;8.58;100.00
47166;BME280;32930;51.112;13.762;2022-12-24T18:50:55;99302.59;;;8.82;100.00
47166;BME280;32930;51.112;13.762;2022-12-24T18:53:21;99325.47;;;8.67;100.00
47166;BME280;32930;51.112;13.762;2022-12-24T18:55:46;99315.19;;;8.61;100.00
47166;BME280;32930;51.112;13.762;2022-12-24T18:58:12;99310.97;;;8.64;100.00
47166;BME280;32930;51.112;13.762;2022-12-24T19:00:37;99317.88;;;8.76;100.00
47166;BME280;32930;51.112;13.762;2022-12-24T19:03:03;99315.97;;;8.53;100.00
47166;BME280;32930;51.112;13.762;2022-12-24T19:05:29;99310.06;;;8.57;100.00
47166;BME280;32930;51.112;13.762;2022-12-24T19:07:55;99307.25;;;8.38;100.00
47166;BME280;32930;51.112;13.762;2022-12-24T19:10:21;99310.69;;;8.38;100.00
47166;BME280;32930;51.112;13.762;2022-12-24T19:12:47;99306.50;;;8.43;100.00
47166;BME280;32930;51.112;13.762;2022-12-24T19:15:12;99314.13;;;8.40;100.00
47166;BME280;32930;51.112;13.762;2022-12-24T19:17:39;99327.13;;;8.62;100.00
47166;BME280;32930;51.112;13.762;2022-12-24T19:20:05;99324.47;;;8.49;100.00
47166;BME280;32930;51.112;13.762;2022-12-24T19:22:31;99325.56;;;8.79;100.00
47166;BME280;32930;51.112;13.762;2022-12-24T19:24:56;99340.22;;;8.92;100.00
47166;BME280;32930;51.112;13.762;2022-12-24T19:27:22;99337.44;;;8.68;100.00
47166;BME280;32930;51.112;13.762;2022-12-24T19:29:51;99338.38;;;8.79;100.00
47166;BME280;32930;51.112;13.762;2022-12-24T19:32:16;99347.72;;;8.75;100.00
47166;BME280;32930;51.112;13.762;2022-12-24T19:34:42;99349.59;;;8.95;100.00
47166;BME280;32930;51.112;13.762;2022-12-24T19:37:07;99348.88;;;9.08;99.18
47166;BME280;32930;51.112;13.762;2022-12-24T19:39:33;99355.72;;;9.14;98.57
47166;BME280;32930;51.112;13.762;2022-12-24T19:42:00;99367.72;;;9.21;97.76
47166;BME280;32930;51.112;13.762;2022-12-24T19:44:26;99374.44;;;9.08;98.19
47166;BME280;32930;51.112;13.762;2022-12-24T19:46:52;99369.31;;;9.07;98.78
47166;BME280;32930;51.112;13.762;2022-12-24T19:49:17;99378.69;;;9.06;98.50
47166;BME280;32930;51.112;13.762;2022-12-24T19:51:43;99389.81;;;9.13;97.25
47166;BME280;32930;51.112;13.762;2022-12-24T19:54:09;99395.72;;;9.02;97.19
47166;BME280;32930;51.112;13.762;2022-12-24T19:56:38;99392.41;;;9.14;97.68
47166;BME280;32930;51.112;13.762;2022-12-24T19:59:04;99388.00;;;8.99;98.93
47166;BME280;32930;51.112;13.762;2022-12-24T20:01:32;99383.13;;;9.27;96.73
47166;BME280;32930;51.112;13.762;2022-12-24T20:04:00;99385.63;;;9.21;96.85
47166;BME280;32930;51.112;13.762;2022-12-24T20:06:32;99391.63;;;9.21;96.39
47166;BME280;32930;51.112;13.762;2022-12-24T20:08:59;99389.81;;;9.08;98.75
47166;BME280;32930;51.112;13.762;2022-12-24T20:11:26;99388.19;;;9.18;98.69
47166;BME280;32930;51.112;13.762;2022-12-24T20:13:56;99399.34;;;9.29;98.58
47166;BME280;32930;51.112;13.762;2022-12-24T20:16:22;99408.63;;;9.16;98.55
47166;BME280;32930;51.112;13.762;2022-12-24T20:18:53;99407.78;;;9.19;98.57
47166;BME280;32930;51.112;13.762;2022-12-24T20:21:19;99399.97;;;9.03;100.00
47166;BME280;32930;51.112;13.762;2022-12-24T20:23:45;99399.16;;;9.06;100.00
47166;BME280;32930;51.112;13.762;2022-12-24T20:26:14;99413.72;;;9.13;99.11
47166;BME280;32930;51.112;13.762;2022-12-24T20:28:42;99403.50;;;9.15;100.00
47166;BME280;32930;51.112;13.762;2022-12-24T20:31:16;99404.31;;;9.09;100.00
47166;BME280;32930;51.112;13.762;2022-12-24T20:33:44;99402.56;;;9.05;99.33
47166;BME280;32930;51.112;13.762;2022-12-24T20:36:12;99415.53;;;9.25;97.88
47166;BME280;32930;51.112;13.762;2022-12-24T20:38:38;99403.41;;;9.07;99.23
47166;BME280;32930;51.112;13.762;2022-12-24T20:41:04;99416.00;;;8.84;100.00
47166;BME280;32930;51.112;13.762;2022-12-24T20:43:31;99420.44;;;9.03;100.00
47166;BME280;32930;51.112;13.762;2022-12-24T20:45:57;99412.84;;;9.11;98.92
47166;BME280;32930;51.112;13.762;2022-12-24T20:48:23;99410.91;;;8.87;99.23
47166;BME280;32930;51.112;13.762;2022-12-24T20:50:52;99415.19;;;8.88;99.38